OOMS/MCT METAR and TAF weather

Enter ICAO airport designator
Station Type Date Time Source
OOMS METAR 2022/06/26 06:50 UTC NOAA

OOMS 260650Z 05013KT 9000 NSC 38/26 Q0996 NOSIG


Station Type Date Time Source
OOMS Decoded METAR 2022/06/26 06:50 UTC NOAA

Seeb, International Airport, Oman (OOMS) 23-35N 058-17E 17M
Jun 26, 2022 - 02:50 AM EDT / 2022.06.26 0650 UTC
Wind: from the NE (050 degrees) at 15 MPH (13 KT):0
Visibility: 5 mile(s):0
Temperature: 100 F (38 C)
Heat index: 118.4 F (48.0 C):1
Dew Point: 78 F (26 C)
Relative Humidity: 50%
Pressure (altimeter): 29.41 in. Hg (0996 hPa)
ob: OOMS 260650Z 05013KT 9000 NSC 38/26 Q0996 NOSIG
cycle: 7

Station Type Date Time Source
OOMS TAF 2022/06/26 06:04 UTC NOAA

TAF OOMS 260500Z 2606/2712 05014KT 8000 FEW040
BECMG 2616/2618 VRB02KT PROB30
TEMPO 2623/2704 4000 BR SCT015
BECMG 2706/2708 06015KT

Example: see airport list